Time;durP1;ratioP1;P1;durP2;ratioP2;P2;SDS_P1;SDS_P2;PMS_P1;PMS_P2;Temp;Humidity;BMP_temperature;BMP_pressure;BME280_temperature;BME280_humidity;BME280_pressure;Samples;Min_cycle;Max_cycle;Signal;HPM_P1;HPM_P2
2023/12/27 00:00:37;;;;;;;12.55;1.42;;;;;;;-0.57;100.00;100559.00;5072480;28;20024;-69
2023/12/27 00:03:03;;;;;;;14.00;1.63;;;;;;;-0.49;100.00;100564.47;5073832;28;20035;-69
2023/12/27 00:05:29;;;;;;;10.65;1.60;;;;;;;-0.39;100.00;100576.91;5073859;28;20038;-69
2023/12/27 00:07:55;;;;;;;10.85;1.80;;;;;;;-0.36;100.00;100584.56;5073525;28;20094;-68
2023/12/27 00:10:20;;;;;;;10.02;1.60;;;;;;;-0.24;100.00;100591.41;5073336;28;20482;-68
2023/12/27 00:12:45;;;;;;;10.63;1.58;;;;;;;-0.20;100.00;100598.09;5071861;28;20594;-69
2023/12/27 00:15:11;;;;;;;8.95;1.33;;;;;;;-0.18;100.00;100604.09;5072885;28;20495;-69
2023/12/27 00:17:36;;;;;;;15.73;1.60;;;;;;;-0.27;100.00;100579.28;5072824;28;20482;-68
2023/12/27 00:20:02;;;;;;;12.40;2.28;;;;;;;0.09;100.00;100606.09;5072650;28;20039;-69
2023/12/27 00:22:28;;;;;;;11.85;1.50;;;;;;;0.01;100.00;100583.97;5072728;28;20032;-69
2023/12/27 00:24:53;;;;;;;14.60;1.38;;;;;;;0.21;100.00;100614.78;5071603;28;20020;-69
2023/12/27 00:27:19;;;;;;;10.95;1.95;;;;;;;0.24;100.00;100625.09;5071616;28;20332;-69
2023/12/27 00:29:44;;;;;;;12.50;1.15;;;;;;;0.32;100.00;100627.03;5073969;28;20594;-68
2023/12/27 00:32:11;;;;;;;9.68;1.40;;;;;;;0.28;100.00;100591.25;5072514;28;20382;-68
2023/12/27 00:34:36;;;;;;;9.77;1.42;;;;;;;0.47;100.00;100631.78;5073629;28;20028;-67
2023/12/27 00:37:02;;;;;;;15.10;1.42;;;;;;;0.50;100.00;100640.41;5071969;28;20510;-68
2023/12/27 00:39:29;;;;;;;13.23;1.60;;;;;;;0.54;100.00;100642.66;5074058;28;20032;-68
2023/12/27 00:41:54;;;;;;;8.23;1.50;;;;;;;0.51;100.00;100648.25;5072663;28;20471;-68
2023/12/27 00:44:19;;;;;;;5.38;1.05;;;;;;;0.52;100.00;100654.38;5056098;28;20034;-67
2023/12/27 00:46:45;;;;;;;8.35;1.25;;;;;;;0.53;100.00;100667.47;5072157;28;20063;-68
2023/12/27 00:49:11;;;;;;;9.98;1.42;;;;;;;0.53;100.00;100671.91;5072843;28;20487;-68
2023/12/27 00:51:36;;;;;;;10.40;2.20;;;;;;;0.50;100.00;100675.69;5072087;28;20487;-68
2023/12/27 00:54:01;;;;;;;10.80;1.20;;;;;;;0.47;100.00;100675.97;5072154;28;20025;-68
2023/12/27 00:56:27;;;;;;;10.85;1.25;;;;;;;0.45;100.00;100688.50;5073561;28;20028;-67
2023/12/27 00:58:52;;;;;;;10.27;1.73;;;;;;;0.49;100.00;100692.53;5059941;28;20465;-68
2023/12/27 01:01:18;;;;;;;8.43;1.42;;;;;;;0.52;100.00;100694.06;5054676;28;20016;-70
2023/12/27 01:03:43;;;;;;;7.75;1.10;;;;;;;0.29;100.00;100673.13;5054393;28;20491;-69
2023/12/27 01:06:10;;;;;;;14.98;1.10;;;;;;;0.42;100.00;100705.47;5054048;28;20024;-69
2023/12/27 01:08:35;;;;;;;11.43;1.30;;;;;;;0.36;100.00;100713.94;5055200;28;20024;-69
2023/12/27 01:11:01;;;;;;;13.52;1.48;;;;;;;0.29;100.00;100712.81;5073749;28;20032;-74
2023/12/27 01:13:26;;;;;;;14.18;1.30;;;;;;;0.01;100.00;100697.72;5055918;28;20036;-69
2023/12/27 01:15:52;;;;;;;10.85;1.30;;;;;;;0.04;100.00;100730.03;5072370;28;20068;-68
2023/12/27 01:18:17;;;;;;;11.05;1.50;;;;;;;-0.06;100.00;100737.91;5072340;28;20028;-69
2023/12/27 01:20:42;;;;;;;15.93;1.52;;;;;;;-0.13;100.00;100749.13;5071909;28;20505;-69
2023/12/27 01:23:08;;;;;;;11.35;2.20;;;;;;;-0.17;100.00;100745.91;5054055;28;20114;-68
2023/12/27 01:25:33;;;;;;;13.52;1.90;;;;;;;-0.21;100.00;100756.91;5071732;28;20067;-69
2023/12/27 01:27:58;;;;;;;13.18;1.30;;;;;;;-0.28;100.00;100759.22;5053443;28;20036;-68
2023/12/27 01:30:24;;;;;;;11.30;1.27;;;;;;;-0.44;100.00;100742.97;5053594;28;20043;-69
2023/12/27 01:32:49;;;;;;;14.70;2.00;;;;;;;-0.11;100.00;100778.94;5071388;28;20138;-67
2023/12/27 01:35:15;;;;;;;9.00;1.23;;;;;;;0.01;100.00;100771.78;5053415;28;20029;-68
2023/12/27 01:37:42;;;;;;;10.27;1.30;;;;;;;0.07;100.00;100773.91;5071326;28;20101;-68
2023/12/27 01:40:08;;;;;;;7.85;1.27;;;;;;;0.02;100.00;100778.72;5071305;28;20170;-68
2023/12/27 01:42:33;;;;;;;10.30;1.13;;;;;;;-0.20;100.00;100742.69;5053534;28;20566;-71
2023/12/27 01:44:59;;;;;;;9.63;1.13;;;;;;;0.03;100.00;100778.59;5071404;28;20036;-69
2023/12/27 01:47:25;;;;;;;5.72;1.45;;;;;;;-0.03;100.00;100772.03;5069961;28;20040;-68
2023/12/27 01:49:53;;;;;;;11.93;1.63;;;;;;;0.03;100.00;100788.34;5071549;28;20102;-69
2023/12/27 01:52:18;;;;;;;9.25;1.20;;;;;;;-0.04;100.00;100801.25;5053396;28;20029;-68
2023/12/27 01:54:44;;;;;;;13.98;1.33;;;;;;;-0.05;100.00;100800.41;5071455;28;20417;-68
2023/12/27 01:57:10;;;;;;;5.57;1.10;;;;;;;-0.04;100.00;100788.84;5071762;28;20107;-70
2023/12/27 01:59:35;;;;;;;9.40;1.80;;;;;;;-0.05;100.00;100799.59;5069840;28;20033;-68
2023/12/27 02:02:01;;;;;;;10.00;1.20;;;;;;;-0.09;100.00;100800.81;5053166;28;20108;-71
2023/12/27 02:04:27;;;;;;;10.38;1.42;;;;;;;-0.28;100.00;100780.38;5036649;28;20032;-68
2023/12/27 02:06:53;;;;;;;8.07;1.15;;;;;;;-0.22;100.00;100793.09;5036566;28;20127;-68
2023/12/27 02:09:19;;;;;;;8.45;1.23;;;;;;;-0.25;100.00;100798.63;5052880;28;20027;-68
2023/12/27 02:11:45;;;;;;;9.68;1.30;;;;;;;-0.19;100.00;100813.16;5052891;28;20028;-69
2023/12/27 02:14:10;;;;;;;8.20;1.42;;;;;;;-0.20;100.00;100817.56;5036276;28;20032;-68
2023/12/27 02:16:36;;;;;;;4.45;1.30;;;;;;;-0.32;100.00;100797.47;5070689;28;20028;-68
2023/12/27 02:19:04;;;;;;;8.30;1.40;;;;;;;-0.29;100.00;100821.00;5052807;28;20060;-69
2023/12/27 02:21:31;;;;;;;8.52;1.25;;;;;;;-0.41;100.00;100808.81;5069581;28;20043;-69
2023/12/27 02:24:00;;;;;;;11.73;1.02;;;;;;;-0.33;100.00;100828.38;5035825;28;20024;-68
2023/12/27 02:26:26;;;;;;;6.65;0.77;;;;;;;-0.39;100.00;100836.81;5070637;28;20344;-68
2023/12/27 02:28:51;;;;;;;5.38;1.05;;;;;;;-0.43;100.00;100837.16;5052730;28;20063;-67
2023/12/27 02:31:17;;;;;;;9.90;1.05;;;;;;;-0.44;100.00;100844.25;5052546;28;20024;-69
2023/12/27 02:33:46;;;;;;;9.40;1.55;;;;;;;-0.45;100.00;100844.41;5036397;28;20032;-69
2023/12/27 02:36:11;;;;;;;6.32;1.05;;;;;;;-0.46;100.00;100848.84;5070597;28;20402;-68
2023/12/27 02:38:38;;;;;;;8.10;1.00;;;;;;;-0.61;100.00;100834.25;5052507;28;20021;-67
2023/12/27 02:41:04;;;;;;;5.60;1.10;;;;;;;-0.53;100.00;100858.22;5069056;28;20045;-70
2023/12/27 02:43:29;;;;;;;6.72;1.20;;;;;;;-1.16;100.00;100767.41;5070486;28;20445;-69
2023/12/27 02:45:55;;;;;;;6.03;0.95;;;;;;;-0.62;100.00;100866.94;5036025;28;20445;-69
2023/12/27 02:48:20;;;;;;;10.05;0.90;;;;;;;-0.77;100.00;100853.16;5052433;28;20376;-68
2023/12/27 02:50:46;;;;;;;9.70;1.20;;;;;;;-0.69;100.00;100879.81;5053066;28;20559;-68
2023/12/27 02:53:11;;;;;;;6.72;0.77;;;;;;;-0.76;100.00;100891.84;5052668;28;20032;-69
2023/12/27 02:55:37;;;;;;;9.23;1.95;;;;;;;-0.80;100.00;100887.75;5052687;28;20503;-68
2023/12/27 02:58:03;;;;;;;5.68;0.80;;;;;;;-0.92;100.00;100862.34;5052505;28;20510;-68
2023/12/27 03:00:34;;;;;;;8.65;1.08;;;;;;;-0.77;100.00;100890.13;5070633;28;20035;-69
2023/12/27 03:03:00;;;;;;;12.40;2.20;;;;;;;-0.74;100.00;100895.19;5070896;28;20031;-68
2023/12/27 03:05:26;;;;;;;10.20;1.17;;;;;;;-0.88;100.00;100882.25;5069347;28;20028;-68
2023/12/27 03:07:51;;;;;;;7.97;0.95;;;;;;;-0.72;100.00;100917.03;5052518;28;20025;-69
2023/12/27 03:10:16;;;;;;;3.58;0.85;;;;;;;-0.78;100.00;100922.81;5052177;28;20038;-70
2023/12/27 03:12:42;;;;;;;10.05;1.13;;;;;;;-0.78;100.00;100930.75;5037243;28;20118;-69
2023/12/27 03:15:07;;;;;;;6.03;1.05;;;;;;;-0.81;100.00;100929.19;5074614;28;20020;-68
2023/12/27 03:17:33;;;;;;;6.68;0.90;;;;;;;-0.80;100.00;100937.94;5055751;28;20043;-69
2023/12/27 03:19:58;;;;;;;7.55;0.90;;;;;;;-0.82;100.00;100939.88;5072572;28;20101;-69
2023/12/27 03:22:24;;;;;;;8.15;1.10;;;;;;;-0.85;100.00;100943.59;5055980;28;20079;-69
2023/12/27 03:24:49;;;;;;;7.00;0.77;;;;;;;-0.90;100.00;100944.91;5039304;28;20024;-68
2023/12/27 03:27:14;;;;;;;9.40;0.98;;;;;;;-0.90;100.00;100950.19;5055680;28;20024;-69
2023/12/27 03:29:40;;;;;;;16.48;0.93;;;;;;;-0.91;100.00;100948.53;5073849;28;20119;-68
2023/12/27 03:32:06;;;;;;;6.47;0.95;;;;;;;-0.93;100.00;100963.66;5039086;28;20395;-68
2023/12/27 03:34:32;;;;;;;5.18;0.70;;;;;;;-1.05;100.00;100961.03;5039972;28;20032;-69
2023/12/27 03:36:57;;;;;;;4.88;0.90;;;;;;;-0.96;100.00;100997.28;5077242;28;20044;-69
2023/12/27 03:39:23;;;;;;;4.63;0.80;;;;;;;-1.20;100.00;100964.84;5079688;28;20029;-69
2023/12/27 03:41:48;;;;;;;8.00;1.20;;;;;;;-1.01;100.00;100998.59;5078033;28;20041;-68
2023/12/27 03:44:14;;;;;;;6.38;0.90;;;;;;;-1.07;100.00;101001.72;5041628;28;20024;-70
2023/12/27 03:46:39;;;;;;;5.97;1.15;;;;;;;-0.89;100.00;101010.00;5039102;28;20060;-69
2023/12/27 03:49:05;;;;;;;11.52;0.98;;;;;;;-0.85;100.00;101012.28;5055601;28;20403;-68
2023/12/27 03:51:30;;;;;;;4.82;1.10;;;;;;;-0.83;100.00;101022.72;5055665;28;20028;-68
2023/12/27 03:53:56;;;;;;;8.20;1.00;;;;;;;-0.79;100.00;101026.81;5073513;28;20060;-68
2023/12/27 03:56:21;;;;;;;9.68;1.25;;;;;;;-0.75;100.00;101029.09;5055827;28;20154;-68
2023/12/27 03:58:47;;;;;;;8.27;0.80;;;;;;;-0.69;100.00;101032.22;5055720;28;20032;-69
2023/12/27 04:01:12;;;;;;;10.07;1.30;;;;;;;-0.63;100.00;101031.72;5055487;28;20040;-69
2023/12/27 04:03:40;;;;;;;9.32;1.02;;;;;;;-0.56;100.00;101028.50;5074158;28;20571;-69
2023/12/27 04:06:05;;;;;;;3.60;1.10;;;;;;;-0.54;100.00;101036.28;5071701;28;20062;-69
2023/12/27 04:08:30;;;;;;;5.97;0.90;;;;;;;-0.57;100.00;101044.47;5073461;28;20028;-69
2023/12/27 04:10:56;;;;;;;10.73;1.48;;;;;;;-0.57;100.00;101061.16;5055044;28;20028;-69
2023/12/27 04:13:21;;;;;;;5.13;0.90;;;;;;;-0.65;100.00;101042.44;5072770;28;20111;-70
2023/12/27 04:15:46;;;;;;;9.18;1.63;;;;;;;-0.43;100.00;101064.50;5072806;28;20036;-69
2023/12/27 04:18:12;;;;;;;6.70;1.00;;;;;;;-0.44;100.00;101065.47;5073068;28;20035;-69
2023/12/27 04:20:38;;;;;;;12.57;1.65;;;;;;;-0.68;100.00;101037.38;5073563;28;20107;-69
2023/12/27 04:23:04;;;;;;;10.20;2.38;;;;;;;-0.57;100.00;101065.59;5072112;28;20125;-68
2023/12/27 04:25:29;;;;;;;8.75;1.10;;;;;;;-0.62;100.00;101052.75;5072605;28;20047;-68
2023/12/27 04:27:54;;;;;;;10.68;1.33;;;;;;;-0.47;100.00;101070.03;5038264;28;20523;-68
2023/12/27 04:30:21;;;;;;;6.80;0.90;;;;;;;-0.40;100.00;101070.38;5054754;28;20483;-68
2023/12/27 04:32:46;;;;;;;12.00;1.15;;;;;;;-0.31;100.00;101072.31;5054733;28;20287;-69
2023/12/27 04:35:11;;;;;;;10.85;1.17;;;;;;;-0.18;100.00;101072.19;5072536;28;20033;-69
2023/12/27 04:37:37;;;;;;;6.22;1.05;;;;;;;-0.28;100.00;101058.84;5054541;28;20112;-68
2023/12/27 04:40:03;;;;;;;9.48;1.10;;;;;;;-0.03;100.00;101088.63;5054444;28;20415;-70
2023/12/27 04:42:28;;;;;;;16.92;1.20;;;;;;;-0.05;100.00;101091.38;5070977;28;20422;-69
2023/12/27 04:44:53;;;;;;;11.90;1.10;;;;;;;-0.07;100.00;101088.00;5038034;28;20549;-69
2023/12/27 04:47:19;;;;;;;7.07;0.90;;;;;;;-0.07;100.00;101088.00;5054702;28;20024;-68
2023/12/27 04:49:44;;;;;;;10.15;1.23;;;;;;;0.01;100.00;101083.94;5072538;28;20103;-71
2023/12/27 04:52:10;;;;;;;8.38;1.20;;;;;;;-0.13;100.00;101067.38;5071160;28;20515;-69
2023/12/27 04:54:35;;;;;;;12.68;1.70;;;;;;;-0.16;100.00;101094.06;5054542;28;20056;-68
2023/12/27 04:57:00;;;;;;;9.20;1.13;;;;;;;-0.24;100.00;101104.41;5054482;28;20082;-69
2023/12/27 04:59:26;;;;;;;9.40;1.50;;;;;;;-0.28;100.00;101114.38;5054579;28;20486;-69
2023/12/27 05:01:53;;;;;;;7.80;1.08;;;;;;;-0.35;100.00;101105.25;5054493;28;20035;-68
2023/12/27 05:04:18;;;;;;;6.90;1.10;;;;;;;-0.28;100.00;101124.13;5054385;28;20398;-73
2023/12/27 05:06:43;;;;;;;9.13;1.08;;;;;;;-0.31;100.00;101132.28;5072101;28;20028;-68
2023/12/27 05:09:09;;;;;;;8.10;1.40;;;;;;;-0.40;100.00;101128.56;5072307;28;20048;-68
2023/12/27 05:11:35;;;;;;;7.95;0.93;;;;;;;-0.38;100.00;101131.09;5072192;28;20032;-70
2023/12/27 05:14:00;;;;;;;5.82;1.10;;;;;;;-0.43;100.00;101141.16;5072132;28;20528;-70
2023/12/27 05:16:25;;;;;;;7.18;1.00;;;;;;;-0.47;100.00;101140.56;5053633;28;20021;-69
2023/12/27 05:18:51;;;;;;;5.38;1.00;;;;;;;-0.69;100.00;101130.00;5072202;28;20052;-68
2023/12/27 05:21:18;;;;;;;5.97;1.40;;;;;;;-0.45;100.00;101157.16;5054232;28;20039;-71
2023/12/27 05:23:43;;;;;;;8.00;1.25;;;;;;;-0.45;100.00;101138.66;5071234;28;20040;-69
2023/12/27 05:26:09;;;;;;;7.20;1.00;;;;;;;-0.36;100.00;101150.34;5071205;28;20025;-69
2023/12/27 05:28:34;;;;;;;10.35;1.40;;;;;;;-0.39;100.00;101161.16;5071321;28;20020;-69
2023/12/27 05:31:00;;;;;;;6.10;1.00;;;;;;;-0.37;100.00;101175.91;5053303;28;20037;-69
2023/12/27 05:33:26;;;;;;;8.35;1.75;;;;;;;-0.51;100.00;101147.06;5053193;28;20099;-72
2023/12/27 05:35:52;;;;;;;8.90;0.93;;;;;;;-0.41;100.00;101148.03;5068946;28;20037;-70
2023/12/27 05:38:17;;;;;;;7.20;1.67;;;;;;;-0.58;100.00;101130.84;5069822;28;20024;-70
2023/12/27 05:40:43;;;;;;;5.60;1.00;;;;;;;-0.47;100.00;101159.06;5070698;28;20043;-70
2023/12/27 05:43:08;;;;;;;8.80;1.23;;;;;;;-0.41;100.00;101182.41;5052976;28;20161;-69
2023/12/27 05:45:34;;;;;;;5.57;0.98;;;;;;;-0.53;100.00;101176.28;5053746;28;20028;-69
2023/12/27 05:48:00;;;;;;;5.43;1.30;;;;;;;-0.54;100.00;101193.06;5071026;28;20041;-71
2023/12/27 05:50:25;;;;;;;3.55;0.93;;;;;;;-0.63;100.00;101199.09;5071041;28;20032;-69
2023/12/27 05:52:51;;;;;;;10.02;1.02;;;;;;;-0.87;100.00;101190.34;5071436;28;20038;-69
2023/12/27 05:55:16;;;;;;;5.75;1.00;;;;;;;-0.84;100.00;101213.91;5053367;28;20051;-69
2023/12/27 05:57:42;;;;;;;8.65;1.15;;;;;;;-1.03;100.00;101223.19;5071223;28;20055;-71
2023/12/27 06:00:08;;;;;;;5.20;0.90;;;;;;;-0.93;100.00;101243.66;5053452;28;20037;-68
2023/12/27 06:02:33;;;;;;;7.03;1.25;;;;;;;-1.00;100.00;101230.06;5052752;28;20074;-68
2023/12/27 06:04:59;;;;;;;4.25;0.82;;;;;;;-0.91;100.00;101233.81;5069560;28;20562;-68
2023/12/27 06:07:24;;;;;;;5.47;1.00;;;;;;;-0.89;100.00;101242.44;5070940;28;20032;-70
2023/12/27 06:09:50;;;;;;;2.03;1.00;;;;;;;-1.04;100.00;101232.09;5036609;28;20434;-71
2023/12/27 06:12:15;;;;;;;4.53;1.00;;;;;;;-0.90;100.00;101257.47;5070797;28;20041;-72
2023/12/27 06:14:41;;;;;;;2.50;0.80;;;;;;;-0.86;100.00;101274.81;5070690;28;20021;-76
2023/12/27 06:17:08;;;;;;;3.03;0.80;;;;;;;-0.85;100.00;101279.13;5070432;28;20084;-70
2023/12/27 06:19:36;;;;;;;3.58;0.80;;;;;;;-0.83;100.00;101287.78;5053678;28;20036;-71
2023/12/27 06:22:02;;;;;;;1.38;0.70;;;;;;;-0.86;100.00;101289.78;5036562;28;20105;-69
2023/12/27 06:24:28;;;;;;;3.13;0.85;;;;;;;-0.92;100.00;101267.31;5052930;28;20024;-69
2023/12/27 06:26:53;;;;;;;2.85;0.70;;;;;;;-0.78;100.00;101300.66;5052797;28;20391;-72
2023/12/27 06:29:19;;;;;;;5.50;0.95;;;;;;;-0.85;100.00;101305.53;5053326;28;20035;-71
2023/12/27 06:31:44;;;;;;;2.22;0.73;;;;;;;-0.95;100.00;101278.94;5036382;28;20086;-70
2023/12/27 06:34:10;;;;;;;2.78;0.90;;;;;;;-0.66;100.00;101327.94;5052348;28;20048;-72
2023/12/27 06:36:35;;;;;;;2.60;0.73;;;;;;;-0.62;100.00;101334.72;5070634;28;20025;-71
2023/12/27 06:39:00;;;;;;;4.78;0.80;;;;;;;-0.61;100.00;101337.22;5052873;28;20033;-70
2023/12/27 06:41:27;;;;;;;2.65;0.75;;;;;;;-0.68;100.00;101324.59;5070724;28;20059;-71
2023/12/27 06:43:53;;;;;;;2.08;0.65;;;;;;;-0.45;100.00;101346.66;5052801;28;20252;-70
2023/12/27 06:46:18;;;;;;;1.48;0.73;;;;;;;-0.39;100.00;101343.56;5071767;28;20032;-71
2023/12/27 06:48:44;;;;;;;1.95;0.80;;;;;;;-0.27;100.00;101346.13;5056831;28;20033;-73
2023/12/27 06:51:11;;;;;;;2.17;0.80;;;;;;;-0.13;100.00;101354.81;5040190;28;20112;-75
2023/12/27 06:53:37;;;;;;;1.73;0.73;;;;;;;-0.11;100.00;101360.84;5040135;28;20062;-70
2023/12/27 06:56:02;;;;;;;3.10;0.70;;;;;;;-0.09;100.00;101372.16;5056698;28;20048;-70
2023/12/27 06:58:28;;;;;;;2.47;0.70;;;;;;;-0.06;100.00;101372.75;5056299;28;20037;-70
2023/12/27 07:00:53;;;;;;;1.77;0.85;;;;;;;-0.25;100.00;101352.13;5056779;28;20544;-70
2023/12/27 07:03:19;;;;;;;2.78;0.82;;;;;;;-0.04;100.00;101396.44;5056252;28;20064;-71
2023/12/27 07:05:44;;;;;;;1.65;0.80;;;;;;;-0.04;100.00;101386.69;5056055;28;20090;-70
2023/12/27 07:08:10;;;;;;;1.17;0.70;;;;;;;-0.16;100.00;101369.13;5055758;28;20124;-69
2023/12/27 07:10:35;;;;;;;2.80;1.00;;;;;;;-0.12;100.00;101386.44;5040876;28;20479;-73
2023/12/27 07:13:01;;;;;;;2.42;1.08;;;;;;;-0.29;100.00;101368.38;5074559;28;20028;-69
2023/12/27 07:15:27;;;;;;;2.08;0.95;;;;;;;-0.06;100.00;101408.97;5039918;28;20059;-69
2023/12/27 07:17:52;;;;;;;2.63;0.80;;;;;;;-0.07;100.00;101408.09;5073798;28;20242;-69
2023/12/27 07:20:18;;;;;;;1.60;0.73;;;;;;;-0.09;100.00;101422.41;5023111;28;20025;-68
2023/12/27 07:22:44;;;;;;;2.15;0.65;;;;;;;-0.11;100.00;101414.56;5039414;28;20044;-69
2023/12/27 07:25:09;;;;;;;1.90;1.00;;;;;;;-0.11;100.00;101425.16;5055948;28;20048;-71
2023/12/27 07:27:34;;;;;;;1.35;0.82;;;;;;;-0.14;100.00;101435.97;5057109;28;20056;-70
2023/12/27 07:30:00;;;;;;;3.35;1.13;;;;;;;-0.16;100.00;101439.72;5075189;28;20031;-70
2023/12/27 07:32:25;;;;;;;3.88;0.95;;;;;;;-0.18;100.00;101442.44;5074086;28;20078;-70
2023/12/27 07:34:57;;;;;;;3.25;1.10;;;;;;;-0.18;100.00;101455.66;5074019;28;20024;-70
2023/12/27 07:37:25;;;;;;;1.83;0.90;;;;;;;-0.17;100.00;101440.63;5074192;28;20085;-70
2023/12/27 07:39:51;;;;;;;2.70;0.95;;;;;;;-0.21;100.00;101455.06;5023577;28;20032;-72
2023/12/27 07:42:16;;;;;;;3.75;1.05;;;;;;;-0.19;100.00;101467.22;5073949;28;20518;-70
2023/12/27 07:44:42;;;;;;;3.03;0.90;;;;;;;-0.16;100.00;101468.81;5074032;28;20032;-71
2023/12/27 07:47:07;;;;;;;1.38;0.80;;;;;;;-0.77;100.00;101379.78;5055879;28;20033;-69
2023/12/27 07:49:33;;;;;;;2.63;1.33;;;;;;;-0.13;100.00;101487.94;5056410;28;20035;-74
2023/12/27 07:51:58;;;;;;;2.30;1.00;;;;;;;-0.08;100.00;101485.78;5074228;28;20036;-71
2023/12/27 07:54:23;;;;;;;2.97;0.90;;;;;;;-0.11;100.00;101496.56;5077646;28;20119;-71
2023/12/27 07:56:50;;;;;;;2.67;1.10;;;;;;;-0.16;100.00;101489.97;5056274;28;20025;-70
2023/12/27 07:59:15;;;;;;;2.85;1.05;;;;;;;-0.20;100.00;101501.69;5055166;28;20050;-70
2023/12/27 08:01:41;;;;;;;3.38;1.15;;;;;;;-0.25;100.00;101502.03;5055608;28;20032;-71
2023/12/27 08:04:06;;;;;;;2.05;0.82;;;;;;;-0.28;100.00;101491.69;5055349;28;20040;-70
2023/12/27 08:06:31;;;;;;;1.80;0.80;;;;;;;-0.32;100.00;101508.75;5055121;28;20087;-70
2023/12/27 08:08:57;;;;;;;3.90;0.70;;;;;;;-0.31;100.00;101513.91;5073415;28;20068;-71
2023/12/27 08:11:23;;;;;;;2.72;0.90;;;;;;;-0.28;100.00;101507.56;5038712;28;20032;-73
2023/12/27 08:13:49;;;;;;;1.48;0.80;;;;;;;-0.41;100.00;101485.59;5073279;28;20356;-72
2023/12/27 08:16:14;;;;;;;1.92;0.75;;;;;;;-0.24;100.00;101512.50;5072770;28;20070;-70
2023/12/27 08:18:39;;;;;;;2.03;0.70;;;;;;;-0.16;100.00;101505.84;5055079;28;20028;-72
2023/12/27 08:21:05;;;;;;;2.35;0.93;;;;;;;-0.14;100.00;101515.31;5073132;28;20060;-70
2023/12/27 08:23:30;;;;;;;2.13;0.70;;;;;;;-0.15;100.00;101528.66;5054974;28;20029;-70
2023/12/27 08:25:56;;;;;;;1.48;0.70;;;;;;;-0.13;100.00;101532.91;5072724;28;20089;-71
2023/12/27 08:28:23;;;;;;;3.53;0.80;;;;;;;-0.10;100.00;101539.75;5054668;28;20062;-71
2023/12/27 08:30:48;;;;;;;1.58;0.80;;;;;;;-0.09;100.00;101550.22;5055146;28;20029;-71
2023/12/27 08:33:13;;;;;;;3.67;0.90;;;;;;;-0.07;100.00;101553.59;5073132;28;20059;-70
2023/12/27 08:35:39;;;;;;;1.58;0.80;;;;;;;-0.06;100.00;101562.41;5072992;28;20036;-70
2023/12/27 08:38:05;;;;;;;1.58;0.60;;;;;;;-0.05;100.00;101558.78;5072964;28;20052;-71
2023/12/27 08:40:30;;;;;;;2.20;0.90;;;;;;;-0.06;100.00;101555.28;5073205;28;20064;-71
2023/12/27 08:42:57;;;;;;;2.15;0.82;;;;;;;-0.03;100.00;101562.19;5055008;28;20063;-70
2023/12/27 08:45:23;;;;;;;1.98;0.80;;;;;;;-0.03;100.00;101554.25;5073254;28;20025;-71
2023/12/27 08:47:48;;;;;;;2.92;1.35;;;;;;;-0.02;100.00;101564.69;5072920;28;20077;-71
2023/12/27 08:50:14;;;;;;;1.90;0.80;;;;;;;-0.19;100.00;101541.28;5038675;28;20668;-72
2023/12/27 08:52:39;;;;;;;1.60;0.88;;;;;;;-0.15;100.00;101552.47;5054979;28;20085;-71
2023/12/27 08:55:10;;;;;;;2.55;1.00;;;;;;;-0.03;100.00;101581.53;5054829;28;20050;-70
2023/12/27 08:57:37;;;;;;;3.33;1.10;;;;;;;0.01;100.00;101586.59;5072585;28;20020;-71
2023/12/27 09:00:04;;;;;;;2.53;0.80;;;;;;;0.04;100.00;101587.22;5054572;28;20424;-71
2023/12/27 09:02:29;;;;;;;2.90;0.90;;;;;;;0.06;100.00;101601.16;5038379;28;20495;-71
2023/12/27 09:04:55;;;;;;;2.50;0.80;;;;;;;0.07;100.00;101602.03;5021152;28;20028;-74
2023/12/27 09:07:20;;;;;;;2.13;0.75;;;;;;;0.04;100.00;101599.63;5071990;28;20060;-71
2023/12/27 09:09:45;;;;;;;4.10;1.95;;;;;;;0.06;100.00;101610.91;5053091;28;20114;-71
2023/12/27 09:12:11;;;;;;;2.00;1.38;;;;;;;0.04;100.00;101615.50;5035974;28;20044;-75
2023/12/27 09:14:39;;;;;;;2.40;1.25;;;;;;;-0.03;100.00;101612.44;5037223;28;20119;-74
2023/12/27 09:17:05;;;;;;;2.70;0.90;;;;;;;-0.04;100.00;101621.31;5037671;28;20554;-70
2023/12/27 09:19:33;;;;;;;2.72;0.82;;;;;;;-0.12;100.00;101621.03;5071988;28;20153;-73
2023/12/27 09:21:58;;;;;;;3.53;1.00;;;;;;;-0.18;100.00;101629.41;5054221;28;20032;-71
2023/12/27 09:24:24;;;;;;;3.40;1.08;;;;;;;-0.36;100.00;101605.97;5052038;28;20047;-72
2023/12/27 09:26:49;;;;;;;2.20;0.80;;;;;;;-0.41;100.00;101618.66;5035123;28;20056;-71
2023/12/27 09:29:15;;;;;;;2.42;1.00;;;;;;;-0.32;100.00;101656.81;5052127;28;20024;-73
2023/12/27 09:31:41;;;;;;;1.85;1.42;;;;;;;-0.37;100.00;101648.34;5070225;28;20032;-79
2023/12/27 09:34:06;;;;;;;3.67;2.08;;;;;;;-0.42;100.00;101658.44;5052310;28;20043;-73
2023/12/27 09:36:32;;;;;;;4.68;3.10;;;;;;;-0.46;100.00;101663.09;5052439;28;20594;-71
2023/12/27 09:38:59;;;;;;;4.85;3.40;;;;;;;-0.63;100.00;101639.59;5053643;28;20032;-72
2023/12/27 09:41:25;;;;;;;7.05;3.63;;;;;;;-0.67;100.00;101632.84;5054260;28;20057;-70
2023/12/27 09:43:53;;;;;;;3.60;2.13;;;;;;;-0.54;100.00;101653.03;5071927;28;20503;-71
2023/12/27 09:46:20;;;;;;;2.13;1.58;;;;;;;-0.55;100.00;101655.78;5054240;28;20027;-71
2023/12/27 09:48:45;;;;;;;2.63;1.55;;;;;;;-0.57;100.00;101661.16;5053557;28;20024;-71
2023/12/27 09:51:11;;;;;;;1.67;1.23;;;;;;;-0.71;100.00;101646.25;5054184;28;20040;-71
2023/12/27 09:53:40;;;;;;;1.35;0.90;;;;;;;-0.58;100.00;101674.50;5053836;28;20115;-71
2023/12/27 09:56:06;;;;;;;4.32;1.60;;;;;;;-0.53;100.00;101682.94;5053868;28;20119;-70
2023/12/27 09:58:35;;;;;;;2.88;1.60;;;;;;;-0.53;100.00;101681.16;5053932;28;20020;-72
2023/12/27 10:01:02;;;;;;;5.22;1.38;;;;;;;-0.67;100.00;101675.97;5054329;28;20059;-69
2023/12/27 10:03:35;;;;;;;3.70;1.60;;;;;;;-0.55;100.00;101698.94;5071789;28;20024;-70
2023/12/27 10:06:22;;;;;;;2.13;1.38;;;;;;;-0.54;100.00;101695.31;5071388;28;20491;-71
2023/12/27 10:08:48;;;;;;;1.45;1.10;;;;;;;-0.67;100.00;101675.97;5071218;28;20039;-69
2023/12/27 10:11:13;;;;;;;1.58;0.85;;;;;;;-0.55;100.00;101701.56;5071306;28;20036;-71
2023/12/27 10:13:41;;;;;;;3.30;0.90;;;;;;;-0.54;100.00;101713.81;5053326;28;20029;-71
2023/12/27 10:16:06;;;;;;;4.68;0.90;;;;;;;-0.74;100.00;101669.41;5071519;28;20502;-70
2023/12/27 10:18:32;;;;;;;2.45;1.20;;;;;;;-0.52;100.00;101711.94;5072235;28;20024;-72
2023/12/27 10:20:58;;;;;;;2.63;1.70;;;;;;;-0.50;100.00;101715.34;5071924;28;20025;-71
2023/12/27 10:23:24;;;;;;;1.50;0.75;;;;;;;-0.48;100.00;101710.75;5037444;28;20040;-70
2023/12/27 10:25:51;;;;;;;2.03;0.80;;;;;;;-0.42;100.00;101709.50;5071576;28;20403;-71
2023/12/27 10:28:17;;;;;;;3.13;0.80;;;;;;;-0.39;100.00;101713.75;5071271;28;20272;-70
2023/12/27 10:30:44;;;;;;;1.70;0.73;;;;;;;-0.38;100.00;101715.44;5053413;28;20036;-72
2023/12/27 10:33:10;;;;;;;2.33;0.70;;;;;;;-0.36;100.00;101716.19;5052834;28;20056;-70
2023/12/27 10:35:38;;;;;;;1.17;0.50;;;;;;;-0.32;100.00;101717.66;5053320;28;20513;-71
2023/12/27 10:38:06;;;;;;;1.20;0.80;;;;;;;-0.26;100.00;101719.88;5071107;28;20048;-71
2023/12/27 10:40:36;;;;;;;2.08;0.63;;;;;;;-0.24;100.00;101721.44;5071298;28;20515;-71
2023/12/27 10:43:02;;;;;;;1.33;0.70;;;;;;;-0.30;100.00;101705.16;5053013;28;20098;-72
2023/12/27 10:45:28;;;;;;;0.88;0.57;;;;;;;-0.17;100.00;101718.38;5053477;28;20017;-71
2023/12/27 10:47:59;;;;;;;2.20;0.75;;;;;;;-0.15;100.00;101714.66;5053136;28;20044;-70
2023/12/27 10:50:29;;;;;;;3.60;0.93;;;;;;;-0.11;100.00;101713.50;5071575;28;20024;-71
2023/12/27 10:53:06;;;;;;;1.52;0.60;;;;;;;-0.08;100.00;101730.97;5068329;28;20028;-71
2023/12/27 10:55:33;;;;;;;1.95;0.60;;;;;;;-0.18;100.00;101709.59;5048803;28;20029;-69
2023/12/27 10:58:01;;;;;;;1.80;0.70;;;;;;;-0.05;100.00;101720.16;5052989;28;20024;-70
2023/12/27 11:00:28;;;;;;;1.65;0.60;;;;;;;-0.02;100.00;101726.09;5071534;28;20025;-70
2023/12/27 11:02:54;;;;;;;2.20;0.80;;;;;;;0.03;100.00;101722.25;5052948;28;20039;-70
2023/12/27 11:05:23;;;;;;;1.45;0.52;;;;;;;0.01;100.00;101718.91;5070696;28;20044;-71
2023/12/27 11:07:50;;;;;;;1.80;0.60;;;;;;;0.05;100.00;101715.06;5053093;28;20040;-72
2023/12/27 11:10:16;;;;;;;1.65;0.63;;;;;;;0.08;100.00;101717.50;5070845;28;20028;-72